createdAt,value
2019-02-21T00:00:30.453Z,29.33
2019-02-21T00:04:29.280Z,27.87
2019-02-21T00:08:35.357Z,29.43
2019-02-21T00:12:33.954Z,27.50
2019-02-21T00:16:32.869Z,27.13
2019-02-21T00:20:34.089Z,25.83
2019-02-21T00:24:32.638Z,28.50
2019-02-21T00:28:41.745Z,26.87
2019-02-21T00:32:40.419Z,23.47
2019-02-21T00:36:39.375Z,29.43
2019-02-21T00:40:37.973Z,33.47
2019-02-21T00:44:37.442Z,26.30
2019-02-21T00:48:36.178Z,30.10
2019-02-21T00:52:36.764Z,32.13
2019-02-21T00:56:39.783Z,34.43
2019-02-21T01:00:46.650Z,30.57
2019-02-21T01:04:40.080Z,28.43
2019-02-21T01:08:38.684Z,27.63
2019-02-21T01:12:37.285Z,30.33
2019-02-21T01:16:35.844Z,29.67
2019-02-21T01:20:34.505Z,28.67
2019-02-21T01:24:33.148Z,35.87
2019-02-21T01:28:31.741Z,35.23
2019-02-21T01:32:30.519Z,32.60
2019-02-21T01:36:29.090Z,39.73
2019-02-21T01:40:27.671Z,36.47
2019-02-21T01:44:26.280Z,34.63
2019-02-21T01:48:30.350Z,39.80
2019-02-21T01:52:29.299Z,36.27
2019-02-21T01:56:27.886Z,33.43
2019-02-21T02:00:26.489Z,33.47
2019-02-21T02:04:25.093Z,34.87
2019-02-21T02:08:23.662Z,35.43
2019-02-21T02:12:22.241Z,32.40
2019-02-21T02:16:20.899Z,36.83
2019-02-21T02:20:19.932Z,37.70
2019-02-21T02:24:18.615Z,34.57
2019-02-21T02:28:17.218Z,34.87
2019-02-21T02:32:15.785Z,36.53
2019-02-21T02:36:14.386Z,31.10
2019-02-21T02:40:13.089Z,32.17
2019-02-21T02:44:11.748Z,33.20
2019-02-21T02:48:10.322Z,30.47
2019-02-21T02:52:08.984Z,30.53
2019-02-21T02:56:07.654Z,34.97
2019-02-21T03:00:09.333Z,31.97
2019-02-21T03:04:07.912Z,31.03
2019-02-21T03:08:06.476Z,29.87
2019-02-21T03:12:07.283Z,28.93
2019-02-21T03:16:05.911Z,26.60
2019-02-21T03:20:06.850Z,28.20
2019-02-21T03:24:05.520Z,29.37
2019-02-21T03:28:04.220Z,27.53
2019-02-21T03:32:02.806Z,29.77
2019-02-21T03:36:01.406Z,29.07
2019-02-21T03:39:59.970Z,30.03
2019-02-21T03:43:58.560Z,31.00
2019-02-21T03:47:57.152Z,27.03
2019-02-21T03:51:55.736Z,28.33
2019-02-21T03:55:54.403Z,27.97
2019-02-21T03:59:53.110Z,38.07
2019-02-21T04:03:51.768Z,30.30
2019-02-21T04:07:50.361Z,31.33
2019-02-21T04:12:06.958Z,32.07
2019-02-21T04:16:05.784Z,25.73
2019-02-21T04:20:06.965Z,30.60
2019-02-21T04:24:05.544Z,29.97
2019-02-21T04:28:04.129Z,26.43
2019-02-21T04:32:02.739Z,27.47
2019-02-21T04:36:01.321Z,28.70
2019-02-21T04:39:59.915Z,34.60
2019-02-21T04:43:58.552Z,34.60
2019-02-21T04:47:57.530Z,37.90
2019-02-21T04:51:56.363Z,37.17
2019-02-21T04:55:54.908Z,34.77
2019-02-21T04:59:53.685Z,33.80
2019-02-21T05:03:52.296Z,39.23
2019-02-21T05:07:51.258Z,42.93
2019-02-21T05:11:49.840Z,39.97
2019-02-21T05:15:48.504Z,37.57
2019-02-21T05:19:47.080Z,35.77
2019-02-21T05:23:45.858Z,37.13
2019-02-21T05:27:46.049Z,41.77
2019-02-21T05:32:02.535Z,40.00
2019-02-21T05:36:02.895Z,38.17
2019-02-21T05:40:22.068Z,35.10
2019-02-21T05:44:28.299Z,40.20
2019-02-21T05:48:40.066Z,38.80
2019-02-21T05:52:54.754Z,40.07
2019-02-21T05:57:01.104Z,39.00
2019-02-21T06:01:17.671Z,44.23
2019-02-21T06:05:30.163Z,40.27
2019-02-21T06:09:30.411Z,45.63
2019-02-21T06:13:39.799Z,45.63
2019-02-21T06:17:46.657Z,44.73
2019-02-21T06:21:47.170Z,48.70
2019-02-21T06:25:56.733Z,50.23
2019-02-21T06:29:58.022Z,53.67
2019-02-21T06:33:57.014Z,49.00
2019-02-21T06:38:07.088Z,45.33
2019-02-21T06:42:05.818Z,52.90
2019-02-21T06:46:04.365Z,53.63
2019-02-21T06:50:03.260Z,55.27
2019-02-21T06:54:02.187Z,55.53
2019-02-21T06:58:00.771Z,54.47
2019-02-21T07:01:59.629Z,57.90
2019-02-21T07:05:58.578Z,62.07
2019-02-21T07:10:03.198Z,51.43
2019-02-21T07:14:03.480Z,55.53
2019-02-21T07:18:02.014Z,61.73
2019-02-21T07:22:00.586Z,56.10
2019-02-21T07:26:00.556Z,55.60
2019-02-21T07:29:59.108Z,58.03
2019-02-21T07:33:57.707Z,65.67
2019-02-21T07:37:56.296Z,58.33
2019-02-21T07:41:55.766Z,57.23
2019-02-21T07:45:59.319Z,66.33
2019-02-21T07:49:57.895Z,64.37
2019-02-21T07:53:56.461Z,56.03
2019-02-21T07:57:55.088Z,67.30
2019-02-21T08:01:54.202Z,55.57
2019-02-21T08:05:52.789Z,60.90
2019-02-21T08:09:51.538Z,60.40
2019-02-21T08:13:50.120Z,52.00
2019-02-21T08:17:50.426Z,57.43
2019-02-21T08:21:49.132Z,48.27
2019-02-21T08:25:48.088Z,53.87
2019-02-21T08:29:47.027Z,55.23
2019-02-21T08:33:58.011Z,55.47
2019-02-21T08:37:47.604Z,57.03
2019-02-21T08:41:46.573Z,52.70
2019-02-21T08:45:45.162Z,50.70
2019-02-21T08:49:43.854Z,58.97
2019-02-21T08:53:42.747Z,54.00
2019-02-21T08:57:41.264Z,53.00
2019-02-21T09:01:40.618Z,60.93
2019-02-21T09:05:39.451Z,52.73
2019-02-21T09:09:38.067Z,55.77
2019-02-21T09:13:36.654Z,55.20
2019-02-21T09:17:36.021Z,50.50
2019-02-21T09:21:34.615Z,51.13
2019-02-21T09:25:33.370Z,57.33
2019-02-21T09:29:36.181Z,50.67
2019-02-21T09:33:37.113Z,50.30
2019-02-21T09:37:35.537Z,54.93
2019-02-21T09:41:34.217Z,57.40
2019-02-21T09:45:35.868Z,54.83
2019-02-21T09:49:56.460Z,57.27
2019-02-21T09:53:54.879Z,56.57
2019-02-21T09:57:55.580Z,48.77
2019-02-21T10:01:53.785Z,55.20
2019-02-21T10:05:52.402Z,52.73
2019-02-21T10:09:50.981Z,56.00
2019-02-21T10:13:49.583Z,54.67
2019-02-21T10:17:51.614Z,45.33
2019-02-21T10:21:50.152Z,57.37
2019-02-21T10:25:48.781Z,55.87
2019-02-21T10:29:47.705Z,48.43
2019-02-21T10:33:47.297Z,53.87
2019-02-21T10:37:46.233Z,52.63
2019-02-21T10:41:44.906Z,54.17
2019-02-21T10:45:47.928Z,50.93
2019-02-21T10:49:43.820Z,55.50
2019-02-21T10:53:43.709Z,54.17
2019-02-21T10:57:42.364Z,52.13
2019-02-21T11:01:41.037Z,61.80
2019-02-21T11:05:48.522Z,50.87
2019-02-21T11:09:55.945Z,53.17
2019-02-21T11:13:54.559Z,52.63
2019-02-21T11:17:53.608Z,43.03
2019-02-21T11:21:52.288Z,50.50
2019-02-21T11:25:50.913Z,44.53
2019-02-21T11:29:49.522Z,52.87
2019-02-21T17:24:06.976Z,32.77
2019-02-21T17:28:05.566Z,31.33
2019-02-21T17:32:04.262Z,35.63
2019-02-21T17:36:02.938Z,33.30
2019-02-21T17:40:02.513Z,37.83
2019-02-21T17:44:01.096Z,43.00
2019-02-21T17:47:59.734Z,42.93
2019-02-21T17:51:58.463Z,34.17
2019-02-21T17:55:57.103Z,33.77
2019-02-21T17:59:57.569Z,36.13
2019-02-21T18:03:56.596Z,40.27
2019-02-21T18:07:55.240Z,35.00
2019-02-21T18:11:53.859Z,40.93
2019-02-21T18:15:52.485Z,35.93
2019-02-21T18:19:51.535Z,34.33
2019-02-21T18:23:50.159Z,36.37
2019-02-21T18:27:50.269Z,40.93
2019-02-21T18:31:48.852Z,39.47
2019-02-21T18:35:47.487Z,40.03
2019-02-21T18:39:46.078Z,38.60
2019-02-21T18:43:44.707Z,39.97
2019-02-21T18:47:43.315Z,44.50
2019-02-21T18:51:41.911Z,46.27
2019-02-21T18:55:40.536Z,41.97
2019-02-21T18:59:39.756Z,54.00
2019-02-21T19:03:39.216Z,47.23
2019-02-21T19:07:45.548Z,56.40
2019-02-21T19:11:44.131Z,55.07
2019-02-21T19:15:43.363Z,50.53
2019-02-21T19:19:43.500Z,54.17
2019-02-21T19:23:42.145Z,58.73
2019-02-21T19:27:41.424Z,50.60
2019-02-21T19:31:40.043Z,57.70
2019-02-21T19:35:38.666Z,58.60
2019-02-21T19:39:37.346Z,61.27
2019-02-21T19:43:35.926Z,65.63
2019-02-21T19:47:36.300Z,62.70
2019-02-21T19:51:35.092Z,60.67
2019-02-21T19:55:35.379Z,60.93
2019-02-21T19:59:34.371Z,62.90
2019-02-21T20:03:33.247Z,62.00
2019-02-21T20:07:32.043Z,63.70
2019-02-21T20:11:30.919Z,68.63
2019-02-21T20:15:29.500Z,64.07
2019-02-21T20:19:28.107Z,62.63
2019-02-21T20:23:26.856Z,63.67
2019-02-21T20:27:25.382Z,62.33
2019-02-21T20:31:24.095Z,64.03
2019-02-21T20:35:22.888Z,58.40
2019-02-21T20:39:21.539Z,64.20
2019-02-21T20:43:32.012Z,68.50
2019-02-21T20:47:30.712Z,60.20
2019-02-21T20:51:29.323Z,57.27
2019-02-21T20:55:28.015Z,59.23
2019-02-21T20:59:26.642Z,58.23
2019-02-21T21:03:25.231Z,62.73
2019-02-21T21:07:25.329Z,54.03
2019-02-21T21:11:24.675Z,56.83
2019-02-21T21:15:23.309Z,56.70
2019-02-21T21:19:22.565Z,64.70
2019-02-21T21:23:21.409Z,58.77
2019-02-21T21:27:20.036Z,56.23
2019-02-21T21:31:18.679Z,64.73
2019-02-21T21:35:17.349Z,62.83
2019-02-21T21:39:16.108Z,60.53
2019-02-21T21:43:16.624Z,61.73
2019-02-21T21:47:15.246Z,75.27
2019-02-21T21:51:13.910Z,63.80
2019-02-21T21:55:12.783Z,68.03
2019-02-21T21:59:16.260Z,63.73
2019-02-21T22:03:14.848Z,67.97
2019-02-21T22:07:13.469Z,80.87
2019-02-21T22:11:12.029Z,70.10
2019-02-21T22:15:19.096Z,72.43
2019-02-21T22:19:17.692Z,73.50
2019-02-21T22:23:18.261Z,68.93
2019-02-21T22:27:17.215Z,62.87
2019-02-21T22:31:15.805Z,65.40
2019-02-21T22:35:14.397Z,62.20
2019-02-21T22:39:16.314Z,64.73
2019-02-21T22:43:13.434Z,67.67
2019-02-21T22:47:12.007Z,70.97
2019-02-21T22:51:10.585Z,72.60
2019-02-21T22:55:10.455Z,68.50
2019-02-21T22:59:09.486Z,69.97
2019-02-21T23:03:12.487Z,71.17
2019-02-21T23:07:23.806Z,73.13
2019-02-21T23:11:42.462Z,76.97
2019-02-21T23:15:41.439Z,79.73
2019-02-21T23:19:40.292Z,74.30
2019-02-21T23:23:39.091Z,83.03
2019-02-21T23:27:37.652Z,82.30
2019-02-21T23:31:36.283Z,82.77
2019-02-21T23:35:35.078Z,84.07
2019-02-21T23:39:38.360Z,83.20
2019-02-21T23:43:34.361Z,85.10
2019-02-21T23:47:49.911Z,90.23
2019-02-21T23:51:47.868Z,89.70
2019-02-21T23:55:46.602Z,94.67
2019-02-21T23:59:45.187Z,97.67
